Time;durP1;ratioP1;P1;durP2;ratioP2;P2;SDS_P1;SDS_P2;PMS_P1;PMS_P2;Temp;Humidity;BMP_temperature;BMP_pressure;BME280_temperature;BME280_humidity;BME280_pressure;Samples;Min_cycle;Max_cycle;Signal;HPM_P1;HPM_P2
2023/06/27 00:02:26;;;;;;;2.95;1.60;;;19.50;94.10;;;;;;5029187;28;20041;-72
2023/06/27 00:05:13;;;;;;;4.80;2.08;;;19.50;94.20;;;;;;5033666;28;20595;-72
2023/06/27 00:07:59;;;;;;;6.10;1.55;;;19.40;94.30;;;;;;5020627;28;20069;-72
2023/06/27 00:10:45;;;;;;;4.93;2.00;;;19.30;94.50;;;;;;5031672;28;20497;-71
2023/06/27 00:13:31;;;;;;;2.75;1.67;;;19.30;94.50;;;;;;5015183;28;20036;-72
2023/06/27 00:16:17;;;;;;;3.42;1.48;;;19.30;94.50;;;;;;5014081;28;20040;-70
2023/06/27 00:19:04;;;;;;;3.90;1.88;;;19.20;94.60;;;;;;5027044;28;20041;-70
2023/06/27 00:21:50;;;;;;;4.18;1.70;;;19.20;94.60;;;;;;5023840;28;20034;-69
2023/06/27 00:24:36;;;;;;;4.22;1.92;;;19.10;94.70;;;;;;5028102;28;20092;-69
2023/06/27 00:27:22;;;;;;;4.95;2.10;;;19.10;94.70;;;;;;5014181;28;20042;-70
2023/06/27 00:30:09;;;;;;;2.40;1.73;;;19.10;94.90;;;;;;5015121;28;20042;-70
2023/06/27 00:32:57;;;;;;;10.00;2.17;;;19.10;95.00;;;;;;5021539;28;20061;-70
2023/06/27 00:35:43;;;;;;;5.57;2.33;;;19.10;95.10;;;;;;5031235;28;20079;-70
2023/06/27 00:38:28;;;;;;;5.10;1.95;;;19.00;95.10;;;;;;5024586;28;20037;-71
2023/06/27 00:41:14;;;;;;;3.15;1.77;;;19.00;95.20;;;;;;5020867;28;20093;-72
2023/06/27 00:44:03;;;;;;;3.70;1.83;;;18.90;95.10;;;;;;5011998;28;20117;-70
2023/06/27 00:46:51;;;;;;;3.38;1.67;;;18.90;95.20;;;;;;5030586;28;20063;-68
2023/06/27 00:49:37;;;;;;;3.72;1.63;;;18.90;95.30;;;;;;5031124;28;20029;-68
2023/06/27 00:52:23;;;;;;;6.22;2.10;;;18.90;95.50;;;;;;5016723;28;20034;-69
2023/06/27 00:55:09;;;;;;;5.07;1.95;;;18.90;95.50;;;;;;5012444;28;20461;-69
2023/06/27 00:57:55;;;;;;;3.45;2.38;;;18.80;95.60;;;;;;5012788;28;20049;-70
2023/06/27 01:00:41;;;;;;;5.85;3.03;;;18.80;95.70;;;;;;5011595;28;20026;-69
2023/06/27 01:03:31;;;;;;;7.03;2.08;;;18.80;95.80;;;;;;5011769;28;20034;-68
2023/06/27 01:06:49;;;;;;;4.88;2.10;;;18.80;95.90;;;;;;5012896;28;20077;-69
2023/06/27 01:09:42;;;;;;;5.03;2.35;;;18.70;95.90;;;;;;5020364;28;20041;-69
2023/06/27 01:12:31;;;;;;;5.60;1.88;;;18.70;96.00;;;;;;5027582;28;20406;-69
2023/06/27 01:15:18;;;;;;;5.65;1.83;;;18.70;96.00;;;;;;5026721;28;20074;-69
2023/06/27 01:18:05;;;;;;;6.00;2.45;;;18.70;96.00;;;;;;5027376;28;20060;-68
2023/06/27 01:20:52;;;;;;;4.65;2.20;;;18.60;96.00;;;;;;5012807;28;20029;-69
2023/06/27 01:24:06;;;;;;;5.20;2.58;;;18.60;96.20;;;;;;5028970;28;20168;-70
2023/06/27 01:26:52;;;;;;;7.32;2.80;;;18.50;96.30;;;;;;5020572;28;20478;-70
2023/06/27 01:29:40;;;;;;;5.38;2.40;;;18.50;96.40;;;;;;5030830;28;20049;-70
2023/06/27 01:32:33;;;;;;;4.22;2.30;;;18.30;96.60;;;;;;5028944;28;20641;-70
2023/06/27 01:35:23;;;;;;;7.63;2.20;;;18.30;96.70;;;;;;5010541;28;20099;-70
2023/06/27 01:38:14;;;;;;;3.70;2.20;;;18.30;96.80;;;;;;5026052;28;20033;-70
2023/06/27 01:41:03;;;;;;;6.78;2.88;;;18.30;96.90;;;;;;5028752;28;20114;-69
2023/06/27 01:43:52;;;;;;;5.95;2.50;;;18.30;97.00;;;;;;5030195;28;20243;-70
2023/06/27 01:46:38;;;;;;;6.95;2.60;;;18.20;97.10;;;;;;5028254;28;20494;-70
2023/06/27 01:49:25;;;;;;;8.15;2.85;;;18.20;97.20;;;;;;5029665;28;20060;-70
2023/06/27 01:52:14;;;;;;;5.05;2.33;;;18.20;97.20;;;;;;5015403;28;20433;-70
2023/06/27 01:55:01;;;;;;;6.13;2.13;;;18.20;97.50;;;;;;5030181;28;21411;-70
2023/06/27 01:57:47;;;;;;;3.40;1.95;;;18.20;97.30;;;;;;5014696;28;20048;-70
2023/06/27 02:00:33;;;;;;;7.38;2.63;;;18.20;97.30;;;;;;5009964;28;20125;-71
2023/06/27 02:03:19;;;;;;;4.75;2.45;;;18.20;97.40;;;;;;5011456;28;20041;-73
2023/06/27 02:06:05;;;;;;;5.65;2.30;;;18.20;97.40;;;;;;5019115;28;20299;-72
2023/06/27 02:08:50;;;;;;;6.38;3.10;;;18.10;97.70;;;;;;5029840;28;20035;-73
2023/06/27 02:11:36;;;;;;;4.70;3.00;;;18.10;97.60;;;;;;5024058;28;20030;-74
2023/06/27 02:14:22;;;;;;;4.28;2.65;;;18.10;97.60;;;;;;5014208;28;20033;-73
2023/06/27 02:17:08;;;;;;;7.10;2.85;;;18.10;97.80;;;;;;5016251;28;20034;-73
2023/06/27 02:19:54;;;;;;;4.72;2.50;;;18.10;97.80;;;;;;5014337;28;20060;-73
2023/06/27 02:22:40;;;;;;;4.82;2.35;;;18.10;97.90;;;;;;5017714;28;20410;-72
2023/06/27 02:25:26;;;;;;;5.25;2.40;;;18.10;97.90;;;;;;5011068;28;20033;-73
2023/06/27 02:28:12;;;;;;;5.05;2.58;;;18.10;97.90;;;;;;5013572;28;20033;-71
2023/06/27 02:30:58;;;;;;;8.38;2.70;;;18.10;98.00;;;;;;5027387;28;20033;-70
2023/06/27 02:33:44;;;;;;;6.20;2.53;;;18.10;98.10;;;;;;5014252;28;20115;-76
2023/06/27 02:36:30;;;;;;;5.78;2.53;;;18.10;98.10;;;;;;5024492;28;20476;-70
2023/06/27 02:39:16;;;;;;;6.82;2.20;;;18.10;98.10;;;;;;5015942;28;20390;-69
2023/06/27 02:42:02;;;;;;;5.90;3.05;;;18.10;98.20;;;;;;5019068;28;20116;-69
2023/06/27 02:44:48;;;;;;;6.00;2.40;;;18.10;98.20;;;;;;5029284;28;20151;-69
2023/06/27 02:47:34;;;;;;;8.20;2.42;;;18.10;98.30;;;;;;5015744;28;20050;-69
2023/06/27 02:50:20;;;;;;;6.63;2.50;;;18.00;98.40;;;;;;5012696;28;20029;-69
2023/06/27 02:53:06;;;;;;;5.30;2.35;;;18.00;98.50;;;;;;5022240;28;20175;-69
2023/06/27 02:55:52;;;;;;;9.70;3.65;;;18.00;98.60;;;;;;5028139;28;20556;-70
2023/06/27 02:58:39;;;;;;;5.97;2.40;;;17.90;98.60;;;;;;5019573;28;20172;-70
2023/06/27 03:01:24;;;;;;;4.35;2.58;;;17.90;98.70;;;;;;5010759;28;20041;-70
2023/06/27 03:04:10;;;;;;;8.40;2.70;;;17.90;98.70;;;;;;5023010;28;20065;-70
2023/06/27 03:06:56;;;;;;;7.13;2.50;;;17.90;98.80;;;;;;5023839;28;20049;-67
2023/06/27 03:09:42;;;;;;;12.02;2.80;;;17.90;98.90;;;;;;5030314;28;20411;-68
2023/06/27 03:12:28;;;;;;;8.10;2.63;;;17.90;98.90;;;;;;5014169;28;20057;-69
2023/06/27 03:15:14;;;;;;;6.60;2.97;;;17.90;98.90;;;;;;5016241;28;20407;-68
2023/06/27 03:18:00;;;;;;;4.28;2.35;;;17.80;98.90;;;;;;5025351;28;20103;-68
2023/06/27 03:20:46;;;;;;;6.97;2.55;;;17.80;99.00;;;;;;5027386;28;20045;-68
2023/06/27 03:23:32;;;;;;;6.55;2.22;;;17.80;99.00;;;;;;5009797;28;20404;-68
2023/06/27 03:26:23;;;;;;;4.05;2.50;;;17.80;99.00;;;;;;5022441;28;20415;-68
2023/06/27 03:29:08;;;;;;;8.13;3.17;;;17.80;99.10;;;;;;5030343;28;20037;-68
2023/06/27 03:31:57;;;;;;;7.43;2.75;;;17.80;99.10;;;;;;5011678;28;20054;-69
2023/06/27 03:34:43;;;;;;;7.88;3.10;;;17.80;99.10;;;;;;5020316;28;20045;-69
2023/06/27 03:37:29;;;;;;;6.20;3.08;;;17.80;99.10;;;;;;5013774;28;20048;-69
2023/06/27 03:40:15;;;;;;;5.82;3.10;;;17.80;99.10;;;;;;5008150;28;20057;-69
2023/06/27 03:43:01;;;;;;;5.15;2.60;;;17.70;99.20;;;;;;5021105;28;20033;-69
2023/06/27 03:45:47;;;;;;;6.50;2.40;;;17.80;99.20;;;;;;5026888;28;20042;-69
2023/06/27 03:48:33;;;;;;;7.32;3.25;;;17.80;99.20;;;;;;5020785;28;20099;-69
2023/06/27 03:51:19;;;;;;;6.07;2.88;;;17.80;99.20;;;;;;5028030;28;20399;-69
2023/06/27 03:54:06;;;;;;;7.80;3.30;;;17.80;99.20;;;;;;5025490;28;20402;-68
2023/06/27 03:56:52;;;;;;;9.13;2.25;;;17.70;99.20;;;;;;5017985;28;20060;-68
2023/06/27 03:59:38;;;;;;;7.13;2.55;;;17.70;99.20;;;;;;5028808;28;20072;-67
2023/06/27 04:02:24;;;;;;;5.55;2.85;;;17.80;99.30;;;;;;5014804;28;20034;-66
2023/06/27 04:05:10;;;;;;;7.80;2.83;;;17.80;99.20;;;;;;5024203;28;20212;-67
2023/06/27 04:07:56;;;;;;;5.82;2.45;;;17.80;99.20;;;;;;5016035;28;20041;-67
2023/06/27 04:10:42;;;;;;;6.72;2.60;;;17.80;99.20;;;;;;5026704;28;20444;-67
2023/06/27 04:13:28;;;;;;;5.70;2.35;;;17.80;99.20;;;;;;5009861;28;20038;-67
2023/06/27 04:16:14;;;;;;;5.03;2.47;;;17.80;99.20;;;;;;5009622;28;20751;-67
2023/06/27 04:19:00;;;;;;;11.50;3.65;;;17.80;99.20;;;;;;5008822;28;20120;-67
2023/06/27 04:21:46;;;;;;;6.78;3.08;;;17.90;99.10;;;;;;5014522;28;20033;-67
2023/06/27 04:24:32;;;;;;;4.20;2.33;;;17.90;99.20;;;;;;5019860;28;20045;-66
2023/06/27 04:27:18;;;;;;;9.65;3.03;;;17.90;99.10;;;;;;5015917;28;20050;-67
2023/06/27 04:30:04;;;;;;;4.50;2.25;;;18.00;99.00;;;;;;5014906;28;20033;-67
2023/06/27 04:32:50;;;;;;;11.13;2.88;;;18.00;99.10;;;;;;5017965;28;20045;-66
2023/06/27 04:35:38;;;;;;;6.40;2.65;;;18.00;99.10;;;;;;5020397;28;20474;-67
2023/06/27 04:38:24;;;;;;;6.85;2.40;;;18.00;99.10;;;;;;5007348;28;20071;-67
2023/06/27 04:41:10;;;;;;;7.40;2.65;;;18.00;99.00;;;;;;5011412;28;20033;-69
2023/06/27 04:43:58;;;;;;;9.60;2.88;;;18.10;99.20;;;;;;5024154;28;20049;-70
2023/06/27 04:46:44;;;;;;;4.85;2.63;;;18.10;99.00;;;;;;5024072;28;20046;-70
2023/06/27 04:49:30;;;;;;;5.53;2.45;;;18.10;99.00;;;;;;5012347;28;20030;-71
2023/06/27 04:52:16;;;;;;;6.40;2.78;;;18.10;99.00;;;;;;5018970;28;20084;-70
2023/06/27 04:55:02;;;;;;;4.93;2.90;;;18.20;99.00;;;;;;5011595;28;20095;-70
2023/06/27 04:57:48;;;;;;;4.88;2.30;;;18.20;98.90;;;;;;5014270;28;20124;-71
2023/06/27 05:00:34;;;;;;;8.30;2.60;;;18.20;98.90;;;;;;5020487;28;20040;-71
2023/06/27 05:03:23;;;;;;;4.53;2.55;;;18.20;98.90;;;;;;5011895;28;20038;-71
2023/06/27 05:06:09;;;;;;;7.15;2.40;;;18.20;98.90;;;;;;5014248;28;20079;-69
2023/06/27 05:08:55;;;;;;;8.85;2.72;;;18.30;98.90;;;;;;5012460;28;20034;-69
2023/06/27 05:11:41;;;;;;;6.82;2.38;;;18.30;98.90;;;;;;5018559;28;20056;-67
2023/06/27 05:14:28;;;;;;;6.00;3.10;;;18.40;98.90;;;;;;5014518;28;20041;-67
2023/06/27 05:17:13;;;;;;;9.10;2.40;;;18.40;98.80;;;;;;5012049;28;20033;-67
2023/06/27 05:19:59;;;;;;;6.65;2.47;;;18.40;98.70;;;;;;5023145;28;20040;-68
2023/06/27 05:22:45;;;;;;;6.57;2.47;;;18.40;98.70;;;;;;5013280;28;20038;-66
2023/06/27 05:25:32;;;;;;;6.07;2.30;;;18.40;98.60;;;;;;5011508;28;20033;-68
2023/06/27 05:28:18;;;;;;;13.95;2.97;;;18.40;98.50;;;;;;5011625;28;20120;-67
2023/06/27 05:31:04;;;;;;;11.45;3.00;;;18.40;98.50;;;;;;5011446;28;20049;-69
2023/06/27 05:33:50;;;;;;;6.05;2.40;;;18.40;98.50;;;;;;5026388;28;20470;-68
2023/06/27 05:36:36;;;;;;;6.95;3.25;;;18.30;98.50;;;;;;5018399;28;20033;-67
2023/06/27 05:39:22;;;;;;;6.63;2.33;;;18.40;98.60;;;;;;5014142;28;20508;-67
2023/06/27 05:42:08;;;;;;;10.85;2.72;;;18.40;98.50;;;;;;5021934;28;20033;-68
2023/06/27 05:44:54;;;;;;;8.93;2.75;;;18.50;98.50;;;;;;5029369;28;20033;-67
2023/06/27 05:47:41;;;;;;;10.15;2.80;;;18.50;98.30;;;;;;5019969;28;20045;-67
2023/06/27 05:50:27;;;;;;;5.20;2.20;;;18.60;98.20;;;;;;5025797;28;20037;-68
2023/06/27 05:53:13;;;;;;;5.55;2.42;;;18.60;98.20;;;;;;5010341;28;20103;-68
2023/06/27 05:55:59;;;;;;;6.60;2.17;;;18.70;98.10;;;;;;5012063;28;20750;-68
2023/06/27 05:58:45;;;;;;;5.07;2.50;;;18.70;98.00;;;;;;5010643;28;20438;-68
2023/06/27 06:01:31;;;;;;;7.82;3.05;;;18.70;97.90;;;;;;5016450;28;20039;-68
2023/06/27 06:04:17;;;;;;;9.25;2.53;;;18.70;97.90;;;;;;5020979;28;20268;-68
2023/06/27 06:07:03;;;;;;;7.22;2.53;;;18.70;97.80;;;;;;5029106;28;20041;-67
2023/06/27 06:09:49;;;;;;;8.60;2.15;;;18.70;97.70;;;;;;5010887;28;20117;-68
2023/06/27 06:12:36;;;;;;;9.55;2.75;;;18.70;97.70;;;;;;5025944;28;20041;-69
2023/06/27 06:15:22;;;;;;;6.10;2.90;;;18.80;97.50;;;;;;5029844;28;20045;-65
2023/06/27 06:18:08;;;;;;;7.55;1.80;;;18.90;97.40;;;;;;5014163;28;20030;-73
2023/06/27 06:20:54;;;;;;;4.70;2.40;;;19.00;97.30;;;;;;5023084;28;20029;-66
2023/06/27 06:23:41;;;;;;;9.98;2.50;;;19.00;97.10;;;;;;5011235;28;20380;-73
2023/06/27 06:26:26;;;;;;;9.43;3.20;;;19.10;97.10;;;;;;5011618;28;20534;-80
2023/06/27 06:29:13;;;;;;;4.93;2.15;;;19.10;97.00;;;;;;5017242;28;20179;-82
2023/06/27 06:31:59;;;;;;;4.43;1.90;;;19.20;97.00;;;;;;5017683;28;20512;-78
2023/06/27 06:34:45;;;;;;;16.17;3.15;;;19.30;97.00;;;;;;5017562;28;20505;-83
2023/06/27 06:37:31;;;;;;;9.15;2.45;;;19.40;96.80;;;;;;5023245;28;20040;-78
2023/06/27 06:40:17;;;;;;;5.72;2.03;;;19.50;96.70;;;;;;5010960;28;20034;-81
2023/06/27 06:43:03;;;;;;;9.50;3.08;;;19.60;96.60;;;;;;5022548;28;20033;-80
2023/06/27 06:45:49;;;;;;;6.10;2.25;;;19.70;96.40;;;;;;5018430;28;20065;-78
2023/06/27 06:48:36;;;;;;;5.20;2.08;;;19.70;96.20;;;;;;5010953;28;20041;-80
2023/06/27 06:51:23;;;;;;;4.82;2.20;;;19.80;96.10;;;;;;5023792;28;20025;-85
2023/06/27 06:54:08;;;;;;;3.83;2.17;;;19.80;95.90;;;;;;5010238;28;20037;-83
2023/06/27 06:56:54;;;;;;;5.65;2.42;;;19.90;95.90;;;;;;5019850;28;20034;-82
2023/06/27 06:59:40;;;;;;;5.38;2.08;;;20.00;95.80;;;;;;5017386;28;20045;-81
2023/06/27 07:02:26;;;;;;;6.70;2.20;;;20.00;95.80;;;;;;5022260;28;20040;-80
2023/06/27 07:05:12;;;;;;;9.20;2.67;;;20.10;95.60;;;;;;5012616;28;20475;-80
2023/06/27 07:07:58;;;;;;;5.38;2.17;;;20.30;95.50;;;;;;5018385;28;20045;-79
2023/06/27 07:10:44;;;;;;;4.55;2.13;;;20.40;95.40;;;;;;5010612;28;20030;-77
2023/06/27 07:13:30;;;;;;;5.90;2.28;;;20.40;95.00;;;;;;5025917;28;20044;-73
2023/06/27 07:16:16;;;;;;;7.75;3.35;;;20.40;94.80;;;;;;5017037;28;20476;-74
2023/06/27 07:19:02;;;;;;;8.73;2.85;;;20.40;94.60;;;;;;5014669;28;20040;-77
2023/06/27 07:21:48;;;;;;;3.78;2.15;;;20.40;94.80;;;;;;5024547;28;20049;-69
2023/06/27 07:24:34;;;;;;;4.70;2.33;;;20.50;94.80;;;;;;5014351;28;20084;-74
2023/06/27 07:27:20;;;;;;;6.93;2.38;;;20.60;94.60;;;;;;5019608;28;20403;-74
2023/06/27 07:30:07;;;;;;;3.15;2.00;;;20.70;94.60;;;;;;5015942;28;20034;-66
2023/06/27 07:32:53;;;;;;;5.90;2.38;;;20.80;94.20;;;;;;5018221;28;20057;-70
2023/06/27 07:35:39;;;;;;;5.45;1.80;;;20.90;93.90;;;;;;5012317;28;20181;-69
2023/06/27 07:38:25;;;;;;;4.93;2.00;;;20.90;93.70;;;;;;5009353;28;20038;-69
2023/06/27 07:41:11;;;;;;;3.72;1.92;;;20.90;93.50;;;;;;5018960;28;20025;-70
2023/06/27 07:43:57;;;;;;;8.65;1.65;;;20.90;93.30;;;;;;5019328;28;20529;-70
2023/06/27 07:46:43;;;;;;;8.65;3.25;;;20.90;93.00;;;;;;5012287;28;20099;-72
2023/06/27 07:49:31;;;;;;;6.15;2.63;;;20.90;93.00;;;;;;5026360;28;20056;-71
2023/06/27 07:52:17;;;;;;;6.90;1.92;;;21.00;92.90;;;;;;5016008;28;20045;-71
2023/06/27 07:55:03;;;;;;;6.55;2.22;;;21.10;92.80;;;;;;5008886;28;20045;-71
2023/06/27 07:57:49;;;;;;;7.75;1.90;;;21.00;92.90;;;;;;5014051;28;20033;-71
2023/06/27 08:00:35;;;;;;;5.55;1.67;;;21.00;92.80;;;;;;5011553;28;20030;-77
2023/06/27 08:03:21;;;;;;;10.85;2.95;;;21.00;92.90;;;;;;5027512;28;20026;-74
2023/06/27 08:06:07;;;;;;;8.30;2.42;;;20.90;92.20;;;;;;5010072;28;20135;-75
2023/06/27 08:08:53;;;;;;;7.28;3.40;;;20.70;92.10;;;;;;5009539;28;20045;-77
2023/06/27 08:11:39;;;;;;;5.80;2.47;;;20.80;92.30;;;;;;5010136;28;20084;-78
2023/06/27 08:14:27;;;;;;;9.32;2.58;;;20.80;92.00;;;;;;5012034;28;20042;-78
2023/06/27 08:20:05;;;;;;;18.98;4.28;;;20.90;92.20;;;;;;5283361;23;20515;-70
2023/06/27 08:22:51;;;;;;;3.97;1.70;;;21.00;92.30;;;;;;5047230;28;20036;-71
2023/06/27 08:25:37;;;;;;;3.63;1.67;;;21.00;91.50;;;;;;5042095;28;20116;-71
2023/06/27 08:28:23;;;;;;;3.60;1.55;;;21.10;91.20;;;;;;5041245;28;20055;-71
2023/06/27 08:31:10;;;;;;;3.05;1.58;;;21.10;91.00;;;;;;5034546;28;20083;-71
2023/06/27 08:33:56;;;;;;;2.88;1.52;;;21.20;90.90;;;;;;5044513;28;20037;-71
2023/06/27 08:36:42;;;;;;;4.82;1.83;;;21.30;90.80;;;;;;5046674;28;20060;-71
2023/06/27 08:39:28;;;;;;;7.38;2.38;;;21.30;90.90;;;;;;5038192;28;20144;-72
2023/06/27 08:42:14;;;;;;;8.70;2.42;;;21.50;90.90;;;;;;5045053;28;20036;-71
2023/06/27 08:45:01;;;;;;;5.05;1.80;;;21.60;90.70;;;;;;5044077;28;20033;-71
2023/06/27 08:47:49;;;;;;;6.05;1.77;;;21.80;90.20;;;;;;5043979;28;20467;-71
2023/06/27 08:50:41;;;;;;;7.32;1.83;;;21.70;89.50;;;;;;5045995;28;20029;-71
2023/06/27 08:53:28;;;;;;;7.07;2.28;;;21.70;89.40;;;;;;5049309;28;20037;-71
2023/06/27 08:56:16;;;;;;;7.13;1.80;;;21.60;90.00;;;;;;5035508;28;20438;-72
2023/06/27 08:59:05;;;;;;;13.15;2.50;;;21.60;90.20;;;;;;5048256;28;20036;-71
2023/06/27 09:01:52;;;;;;;7.10;2.78;;;21.70;90.30;;;;;;5037819;28;20493;-72
2023/06/27 09:04:41;;;;;;;11.20;2.10;;;21.70;90.50;;;;;;5049657;28;20036;-72
2023/06/27 09:07:27;;;;;;;9.55;2.45;;;21.70;90.80;;;;;;5040076;28;20055;-72
2023/06/27 09:10:15;;;;;;;5.18;1.80;;;21.60;90.80;;;;;;5034869;28;20545;-72
2023/06/27 09:13:01;;;;;;;5.20;1.85;;;21.60;90.80;;;;;;5042866;28;20040;-71
2023/06/27 09:15:47;;;;;;;14.07;2.55;;;21.60;90.70;;;;;;5035998;28;20539;-71
2023/06/27 09:18:35;;;;;;;8.23;1.77;;;21.70;90.90;;;;;;5030545;28;20045;-71
2023/06/27 09:21:22;;;;;;;4.18;1.88;;;21.90;90.40;;;;;;5036380;28;20033;-71
2023/06/27 09:24:12;;;;;;;7.97;2.63;;;21.90;89.90;;;;;;5048372;28;20049;-72
2023/06/27 09:26:58;;;;;;;6.05;2.65;;;21.90;88.90;;;;;;5045326;28;20045;-73
2023/06/27 09:29:44;;;;;;;2.83;1.40;;;21.70;89.40;;;;;;5030871;28;20033;-71
2023/06/27 09:32:30;;;;;;;1.80;1.08;;;21.30;88.50;;;;;;5043572;28;20033;-73
2023/06/27 09:35:16;;;;;;;9.15;1.77;;;20.90;89.00;;;;;;5043145;28;20041;-74
2023/06/27 09:38:06;;;;;;;6.88;1.65;;;20.60;90.30;;;;;;5048713;28;20056;-73
2023/06/27 09:41:07;;;;;;;8.05;1.85;;;20.40;90.80;;;;;;5035135;28;20493;-72
2023/06/27 09:43:53;;;;;;;10.77;2.97;;;20.30;91.40;;;;;;5040520;28;20159;-72
2023/06/27 09:46:40;;;;;;;6.25;2.20;;;20.30;91.80;;;;;;5041734;28;20107;-71
2023/06/27 09:49:30;;;;;;;9.57;2.83;;;20.20;92.20;;;;;;5044341;28;20043;-71
2023/06/27 09:52:18;;;;;;;11.10;2.78;;;20.20;92.80;;;;;;5033753;28;20499;-70
2023/06/27 09:55:15;;;;;;;7.80;2.63;;;20.20;93.10;;;;;;5032668;28;20450;-71
2023/06/27 09:58:04;;;;;;;8.95;2.83;;;20.30;93.40;;;;;;5034888;28;20025;-71
2023/06/27 10:00:50;;;;;;;5.65;1.95;;;20.30;93.60;;;;;;5030171;28;20094;-70
2023/06/27 10:03:36;;;;;;;9.65;2.90;;;20.40;93.60;;;;;;5029421;28;20037;-69
2023/06/27 10:06:22;;;;;;;6.53;2.15;;;20.40;93.50;;;;;;5040879;28;20033;-70
2023/06/27 10:09:08;;;;;;;9.10;3.20;;;20.40;93.70;;;;;;5042851;28;20041;-71
2023/06/27 10:11:55;;;;;;;8.75;1.80;;;20.60;93.60;;;;;;5033787;28;20120;-72
2023/06/27 10:14:43;;;;;;;8.35;2.40;;;20.60;93.10;;;;;;5044131;28;20045;-70
2023/06/27 10:17:29;;;;;;;8.52;2.30;;;20.70;93.10;;;;;;5035418;28;20512;-71
2023/06/27 10:20:15;;;;;;;5.97;1.98;;;20.80;93.20;;;;;;5041046;28;20102;-71
2023/06/27 10:23:02;;;;;;;5.55;2.33;;;21.00;93.30;;;;;;5038968;28;20075;-71
2023/06/27 10:25:48;;;;;;;9.00;2.30;;;21.10;93.10;;;;;;5043600;28;20048;-72
2023/06/27 10:28:34;;;;;;;9.30;2.78;;;21.30;93.10;;;;;;5040474;28;20127;-71
2023/06/27 10:31:42;;;;;;;6.03;2.90;;;21.30;93.00;;;;;;5030847;28;20026;-71
2023/06/27 10:34:38;;;;;;;5.72;2.10;;;21.30;92.60;;;;;;5028848;28;20041;-72
2023/06/27 10:37:25;;;;;;;5.70;2.10;;;21.30;92.60;;;;;;5030309;28;20038;-72
2023/06/27 10:40:12;;;;;;;5.35;1.85;;;21.30;92.40;;;;;;5034599;28;20448;-72
2023/06/27 10:42:58;;;;;;;4.97;2.33;;;21.30;92.70;;;;;;5033234;28;20032;-72
2023/06/27 10:46:07;;;;;;;3.38;1.90;;;21.30;93.20;;;;;;5040713;28;20094;-72
2023/06/27 10:49:04;;;;;;;2.42;1.50;;;21.30;93.40;;;;;;5046671;28;20040;-72
2023/06/27 10:51:51;;;;;;;2.10;1.30;;;21.30;93.10;;;;;;5034285;28;20041;-72
2023/06/27 10:54:42;;;;;;;6.22;1.52;;;21.00;92.70;;;;;;5028459;28;20041;-73
2023/06/27 10:57:39;;;;;;;5.20;2.10;;;20.70;92.80;;;;;;5038742;28;20041;-75
2023/06/27 11:00:29;;;;;;;4.57;1.67;;;20.40;93.30;;;;;;5028305;28;20517;-75
2023/06/27 11:03:19;;;;;;;6.55;1.52;;;20.20;93.60;;;;;;5035123;28;20033;-74
2023/06/27 11:06:05;;;;;;;2.83;1.38;;;20.00;93.70;;;;;;5041329;28;20478;-74
2023/06/27 11:08:57;;;;;;;6.18;1.92;;;19.90;94.00;;;;;;5043168;28;20029;-73
2023/06/27 11:12:11;;;;;;;7.65;2.45;;;19.80;94.40;;;;;;5039371;28;20025;-73
2023/06/27 11:14:58;;;;;;;4.80;2.38;;;19.80;94.70;;;;;;5046819;28;20774;-73
2023/06/27 11:17:45;;;;;;;8.20;3.10;;;19.80;95.10;;;;;;5031100;28;20123;-73
2023/06/27 11:20:31;;;;;;;10.18;2.95;;;19.90;95.50;;;;;;5045540;28;20096;-72
2023/06/27 11:23:20;;;;;;;8.70;2.35;;;20.00;95.50;;;;;;5031432;28;20025;-72
2023/06/27 11:26:06;;;;;;;3.75;1.55;;;20.00;95.60;;;;;;5042122;28;20052;-72
2023/06/27 11:28:52;;;;;;;2.80;1.70;;;20.10;95.50;;;;;;5039280;28;20060;-72
2023/06/27 11:31:38;;;;;;;4.70;1.80;;;20.10;95.00;;;;;;5040658;28;20033;-71
2023/06/27 11:34:24;;;;;;;5.35;1.75;;;20.10;95.00;;;;;;5043426;28;20033;-71
2023/06/27 11:37:13;;;;;;;5.30;1.20;;;20.10;95.10;;;;;;5046717;28;20033;-70
2023/06/27 11:40:07;;;;;;;8.88;1.95;;;20.10;95.00;;;;;;5035446;28;20032;-71
2023/06/27 11:43:06;;;;;;;6.18;2.08;;;20.10;95.20;;;;;;5047164;28;20029;-71
2023/06/27 11:45:55;;;;;;;7.53;2.60;;;20.20;95.30;;;;;;5047296;28;20305;-72
2023/06/27 11:48:45;;;;;;;6.13;2.25;;;20.30;95.50;;;;;;5037714;28;20033;-78
2023/06/27 11:51:40;;;;;;;4.93;2.70;;;20.40;95.50;;;;;;5038524;28;20044;-77
2023/06/27 11:54:26;;;;;;;11.13;4.53;;;20.40;95.20;;;;;;5045106;28;20033;-78
2023/06/27 11:57:12;;;;;;;11.07;2.42;;;20.50;95.20;;;;;;5035291;28;20455;-79
2023/06/27 11:59:58;;;;;;;1.90;1.20;;;20.50;95.00;;;;;;5041660;28;20033;-79
2023/06/27 12:02:52;;;;;;;3.78;1.63;;;20.60;94.60;;;;;;5038417;28;20036;-79
2023/06/27 12:05:44;;;;;;;3.55;1.40;;;20.70;94.50;;;;;;5046966;28;20500;-77
2023/06/27 12:08:34;;;;;;;5.78;1.73;;;20.80;94.20;;;;;;5039308;28;20037;-77
2023/06/27 12:11:28;;;;;;;1.65;1.10;;;21.00;94.00;;;;;;5041846;28;20053;-70
2023/06/27 12:14:24;;;;;;;1.60;1.08;;;21.20;93.80;;;;;;5034004;28;20738;-73
2023/06/27 12:17:21;;;;;;;6.13;2.08;;;21.40;93.30;;;;;;5043706;28;21480;-72
2023/06/27 12:20:07;;;;;;;7.72;1.85;;;21.60;93.40;;;;;;5043584;28;20059;-70
2023/06/27 12:22:53;;;;;;;3.10;1.38;;;21.60;92.20;;;;;;5048602;28;20045;-70
2023/06/27 12:25:39;;;;;;;2.78;1.40;;;21.50;90.70;;;;;;5040515;28;20044;-70
2023/06/27 12:28:26;;;;;;;14.30;2.03;;;21.30;89.80;;;;;;5033868;28;20051;-73
2023/06/27 12:31:12;;;;;;;2.00;1.30;;;21.10;89.40;;;;;;5045921;28;20032;-73
2023/06/27 12:34:01;;;;;;;3.53;1.40;;;20.90;89.20;;;;;;5037326;28;20033;-70
2023/06/27 12:36:47;;;;;;;2.80;1.63;;;20.80;89.80;;;;;;5035197;28;20041;-72
2023/06/27 12:39:33;;;;;;;4.90;1.30;;;20.70;90.10;;;;;;5040986;28;20048;-71
2023/06/27 12:42:19;;;;;;;6.25;1.73;;;20.70;90.30;;;;;;5045627;28;20048;-71
2023/06/27 12:45:05;;;;;;;2.88;1.45;;;20.70;90.40;;;;;;5051578;28;20041;-72
2023/06/27 12:47:51;;;;;;;4.85;1.52;;;20.70;90.20;;;;;;5038973;28;20041;-71
2023/06/27 12:50:37;;;;;;;9.70;2.47;;;20.80;90.30;;;;;;5039107;28;20108;-71
2023/06/27 12:53:23;;;;;;;8.05;2.08;;;20.90;90.50;;;;;;5043879;28;20132;-70
2023/06/27 12:56:09;;;;;;;7.45;1.55;;;21.00;90.30;;;;;;5039960;28;20524;-71
2023/06/27 12:58:55;;;;;;;2.50;1.27;;;21.00;90.20;;;;;;5046421;28;20056;-73
2023/06/27 13:01:54;;;;;;;9.00;2.03;;;21.10;90.20;;;;;;5039103;28;20030;-70
2023/06/27 13:04:40;;;;;;;7.78;1.77;;;21.10;90.20;;;;;;5033063;28;20029;-75
2023/06/27 13:07:26;;;;;;;9.00;2.17;;;21.20;90.10;;;;;;5037027;28;20406;-73
2023/06/27 13:10:12;;;;;;;10.55;2.78;;;21.30;90.20;;;;;;5043797;28;20041;-78
2023/06/27 13:13:01;;;;;;;5.20;3.05;;;21.30;90.00;;;;;;5041978;28;20029;-74
2023/06/27 13:15:47;;;;;;;3.55;1.83;;;21.40;90.10;;;;;;5044694;28;20040;-74
2023/06/27 13:18:32;;;;;;;5.93;2.08;;;21.40;89.30;;;;;;5042825;28;20480;-71
2023/06/27 13:21:18;;;;;;;5.22;2.33;;;21.60;89.60;;;;;;5042980;28;20120;-71
2023/06/27 13:24:06;;;;;;;7.22;3.00;;;21.70;89.60;;;;;;5031595;28;20056;-73
2023/06/27 13:26:52;;;;;;;3.13;1.65;;;21.90;90.00;;;;;;5044115;28;20049;-75
2023/06/27 13:29:38;;;;;;;4.28;1.95;;;22.10;89.90;;;;;;5032970;28;20029;-74
2023/06/27 13:32:24;;;;;;;4.63;1.83;;;22.30;90.00;;;;;;5039775;28;20073;-73
2023/06/27 13:35:10;;;;;;;5.60;1.80;;;22.50;90.10;;;;;;5042187;28;20112;-74
2023/06/27 13:37:56;;;;;;;2.80;1.13;;;22.70;89.50;;;;;;5044561;28;20039;-73
2023/06/27 13:40:43;;;;;;;2.50;1.15;;;22.90;88.60;;;;;;5038091;28;20111;-73
2023/06/27 13:43:29;;;;;;;2.20;1.17;;;23.00;88.30;;;;;;5042315;28;20436;-74
2023/06/27 13:46:15;;;;;;;3.60;1.50;;;23.10;87.80;;;;;;5045026;28;20102;-73
2023/06/27 13:49:02;;;;;;;5.55;1.60;;;23.10;87.00;;;;;;5029521;28;20045;-74
2023/06/27 13:51:48;;;;;;;4.82;1.88;;;23.30;87.30;;;;;;5039004;28;20033;-74
2023/06/27 13:54:34;;;;;;;2.88;1.15;;;23.50;87.00;;;;;;5036770;28;20022;-73
2023/06/27 13:57:20;;;;;;;2.20;1.10;;;23.70;86.20;;;;;;5035751;28;20029;-73
2023/06/27 14:00:07;;;;;;;5.57;1.20;;;23.70;85.40;;;;;;5043940;28;20045;-74
2023/06/27 14:02:52;;;;;;;1.63;1.00;;;23.60;84.60;;;;;;5035208;28;20033;-74
2023/06/27 14:05:39;;;;;;;2.67;1.02;;;23.50;83.90;;;;;;5040853;28;20037;-77
2023/06/27 14:08:25;;;;;;;2.72;1.60;;;23.50;84.70;;;;;;5040849;28;20060;-76
2023/06/27 14:11:13;;;;;;;3.83;1.40;;;23.50;85.60;;;;;;5039641;28;20134;-73
2023/06/27 14:14:00;;;;;;;10.40;2.10;;;23.60;85.90;;;;;;5043982;28;20036;-75
2023/06/27 14:16:46;;;;;;;2.83;1.27;;;24.00;86.10;;;;;;5045242;28;20044;-74
2023/06/27 14:19:32;;;;;;;3.50;1.70;;;24.10;85.90;;;;;;5048389;28;20049;-74
2023/06/27 14:22:18;;;;;;;5.53;1.63;;;24.10;85.30;;;;;;5041824;28;20044;-74
2023/06/27 14:25:05;;;;;;;2.03;1.23;;;24.20;86.00;;;;;;5047508;28;20088;-74
2023/06/27 14:27:51;;;;;;;1.98;0.82;;;24.30;85.40;;;;;;5032886;28;20497;-75
2023/06/27 14:30:38;;;;;;;1.90;1.40;;;24.50;84.20;;;;;;5037412;28;20055;-74
2023/06/27 14:33:23;;;;;;;2.20;1.10;;;24.60;82.40;;;;;;5031302;28;20119;-76